EJA853 KMKE-KCGF
Flight info
| Callsign | EJA853 |
|---|---|
| Flight time | 0h 49m |
| Altitude | 41000 |
| Route | SQUIB VIO HASTE BRWNZ4 |
| Aircraft | C700/M-SBDGHM1RWXY/LB2 |
Departure
| Time | 2026-05-07 23:21 |
|---|---|
| Airport | General Mitchell International Airport (KMKE) |
Arrival
| Time | 2026-05-08 00:10 |
|---|---|
| Airport | Cuyahoga County Airport (KCGF) |
| Time | Latitude | Longitude | Altitude | Speed | Heading |
|---|---|---|---|---|---|
| 2026-05-07 23:09 | 42.95820 | -87.89874 | 682 ft | 0 kts | 93° |
| 2026-05-07 23:16 | 42.95807 | -87.89859 | 678 ft | 6 kts | 161° |
| 2026-05-07 23:16 | 42.95744 | -87.89815 | 681 ft | 14 kts | 117° |
| 2026-05-07 23:17 | 42.95743 | -87.89673 | 682 ft | 17 kts | 89° |
| 2026-05-07 23:17 | 42.95744 | -87.89487 | 682 ft | 15 kts | 90° |
| 2026-05-07 23:17 | 42.95744 | -87.89437 | 682 ft | 0 kts | 90° |
| 2026-05-07 23:19 | 42.95743 | -87.89416 | 682 ft | 8 kts | 91° |
| 2026-05-07 23:20 | 42.95734 | -87.89309 | 681 ft | 8 kts | 153° |
| 2026-05-07 23:20 | 42.95695 | -87.89315 | 682 ft | 9 kts | 190° |
| 2026-05-07 23:20 | 42.95621 | -87.89326 | 682 ft | 25 kts | 186° |
| 2026-05-07 23:20 | 42.95083 | -87.89419 | 680 ft | 128 kts | 187° |
| 2026-05-07 23:21 | 42.93953 | -87.89621 | 1048 ft | 194 kts | 184° |
| 2026-05-07 23:21 | 42.92506 | -87.89839 | 1851 ft | 206 kts | 184° |
| 2026-05-07 23:21 | 42.91161 | -87.90024 | 2488 ft | 196 kts | 187° |
| 2026-05-07 23:21 | 42.89617 | -87.90207 | 3329 ft | 250 kts | 180° |
| 2026-05-07 23:22 | 42.87834 | -87.89364 | 4456 ft | 297 kts | 147° |
| 2026-05-07 23:22 | 42.86424 | -87.87134 | 5748 ft | 326 kts | 118° |
| 2026-05-07 23:22 | 42.85884 | -87.84051 | 7129 ft | 332 kts | 90° |
| 2026-05-07 23:22 | 42.86366 | -87.81118 | 8342 ft | 325 kts | 63° |
| 2026-05-07 23:23 | 42.87423 | -87.78268 | 9731 ft | 348 kts | 60° |
| 2026-05-07 23:23 | 42.88472 | -87.75193 | 11134 ft | 367 kts | 65° |
| 2026-05-07 23:23 | 42.89284 | -87.71807 | 12629 ft | 387 kts | 72° |
| 2026-05-07 23:23 | 42.89558 | -87.68211 | 14685 ft | 375 kts | 86° |
| 2026-05-07 23:24 | 42.89511 | -87.64707 | 16662 ft | 371 kts | 89° |
| 2026-05-07 23:24 | 42.89520 | -87.61129 | 17836 ft | 382 kts | 84° |
| 2026-05-07 23:24 | 42.89740 | -87.57490 | 19001 ft | 388 kts | 80° |
| 2026-05-07 23:24 | 42.89995 | -87.53853 | 20036 ft | 396 kts | 82° |
| 2026-05-07 23:25 | 42.90149 | -87.50050 | 21071 ft | 405 kts | 84° |
| 2026-05-07 23:25 | 42.90263 | -87.46181 | 22092 ft | 412 kts | 84° |
| 2026-05-07 23:25 | 42.90435 | -87.42241 | 23103 ft | 419 kts | 82° |
| 2026-05-07 23:25 | 42.90642 | -87.38236 | 23996 ft | 427 kts | 82° |
| 2026-05-07 23:26 | 42.90824 | -87.34159 | 24839 ft | 433 kts | 83° |
| 2026-05-07 23:26 | 42.90982 | -87.30018 | 25665 ft | 440 kts | 83° |
| 2026-05-07 23:26 | 42.91153 | -87.25818 | 26481 ft | 446 kts | 83° |
| 2026-05-07 23:26 | 42.91342 | -87.21572 | 27286 ft | 452 kts | 83° |
| 2026-05-07 23:27 | 42.91702 | -87.12870 | 28852 ft | 465 kts | 84° |
| 2026-05-07 23:27 | 42.91875 | -87.08498 | 29594 ft | 471 kts | 84° |
| 2026-05-07 23:27 | 42.91772 | -87.03983 | 30246 ft | 480 kts | 95° |
| 2026-05-07 23:28 | 42.91390 | -86.99421 | 30762 ft | 487 kts | 95° |
| 2026-05-07 23:28 | 42.91026 | -86.94802 | 31251 ft | 493 kts | 94° |
| 2026-05-07 23:28 | 42.90675 | -86.90119 | 31712 ft | 499 kts | 94° |
| 2026-05-07 23:28 | 42.90303 | -86.85394 | 32152 ft | 505 kts | 95° |
| 2026-05-07 23:29 | 42.89909 | -86.80607 | 32571 ft | 510 kts | 95° |
| 2026-05-07 23:29 | 42.89517 | -86.75776 | 32967 ft | 515 kts | 95° |
| 2026-05-07 23:29 | 42.89132 | -86.70907 | 33493 ft | 517 kts | 95° |
| 2026-05-07 23:29 | 42.88739 | -86.66028 | 33987 ft | 519 kts | 95° |
| 2026-05-07 23:30 | 42.88335 | -86.61125 | 34439 ft | 519 kts | 95° |
| 2026-05-07 23:30 | 42.87932 | -86.56236 | 34910 ft | 519 kts | 95° |
| 2026-05-07 23:30 | 42.87532 | -86.51357 | 35383 ft | 518 kts | 95° |
| 2026-05-07 23:30 | 42.87129 | -86.46468 | 35852 ft | 518 kts | 96° |
| 2026-05-07 23:31 | 42.86722 | -86.41590 | 36316 ft | 517 kts | 96° |
| 2026-05-07 23:31 | 42.86318 | -86.36781 | 36776 ft | 517 kts | 96° |
| 2026-05-07 23:31 | 42.85909 | -86.31915 | 37233 ft | 516 kts | 96° |
| 2026-05-07 23:31 | 42.85499 | -86.27060 | 37690 ft | 515 kts | 96° |
| 2026-05-07 23:32 | 42.85087 | -86.22209 | 38143 ft | 514 kts | 96° |
| 2026-05-07 23:32 | 42.84673 | -86.17379 | 38588 ft | 513 kts | 96° |
| 2026-05-07 23:32 | 42.84258 | -86.12541 | 38941 ft | 512 kts | 96° |
| 2026-05-07 23:32 | 42.83843 | -86.07728 | 39293 ft | 511 kts | 96° |
| 2026-05-07 23:33 | 42.83427 | -86.02926 | 39641 ft | 510 kts | 96° |
| 2026-05-07 23:33 | 42.83009 | -85.98133 | 39984 ft | 509 kts | 96° |
| 2026-05-07 23:33 | 42.82590 | -85.93350 | 40322 ft | 508 kts | 96° |
| 2026-05-07 23:33 | 42.82170 | -85.88578 | 40651 ft | 507 kts | 96° |
| 2026-05-07 23:34 | 42.81748 | -85.83810 | 40972 ft | 506 kts | 96° |
| 2026-05-07 23:34 | 42.81323 | -85.79026 | 41015 ft | 513 kts | 96° |
| 2026-05-07 23:34 | 42.80454 | -85.69313 | 41021 ft | 527 kts | 97° |
| 2026-05-07 23:35 | 42.79548 | -85.59295 | 41027 ft | 532 kts | 97° |
| 2026-05-07 23:35 | 42.78286 | -85.49440 | 41030 ft | 526 kts | 109° |
| 2026-05-07 23:36 | 42.75379 | -85.40291 | 40955 ft | 529 kts | 118° |
| 2026-05-07 23:36 | 42.72232 | -85.31318 | 40952 ft | 526 kts | 117° |
| 2026-05-07 23:37 | 42.69083 | -85.22363 | 40954 ft | 526 kts | 118° |
| 2026-05-07 23:37 | 42.66034 | -85.13298 | 40946 ft | 530 kts | 114° |
| 2026-05-07 23:38 | 42.63258 | -85.04001 | 40942 ft | 531 kts | 114° |
| 2026-05-07 23:38 | 42.60426 | -84.94762 | 40935 ft | 528 kts | 115° |
| 2026-05-07 23:39 | 42.57642 | -84.85584 | 40929 ft | 526 kts | 115° |
| 2026-05-07 23:39 | 42.54823 | -84.76399 | 40926 ft | 528 kts | 115° |
| 2026-05-07 23:40 | 42.51597 | -84.67465 | 40925 ft | 528 kts | 120° |
| 2026-05-07 23:40 | 42.48278 | -84.58567 | 40928 ft | 530 kts | 120° |
| 2026-05-07 23:41 | 42.44975 | -84.49679 | 40920 ft | 527 kts | 120° |
| 2026-05-07 23:41 | 42.41660 | -84.40847 | 40927 ft | 525 kts | 120° |
| 2026-05-07 23:42 | 42.38351 | -84.32012 | 40629 ft | 533 kts | 120° |
| 2026-05-07 23:42 | 42.36684 | -84.27593 | 40074 ft | 530 kts | 120° |
| 2026-05-07 23:42 | 42.35034 | -84.23209 | 39504 ft | 524 kts | 120° |
| 2026-05-07 23:43 | 42.33365 | -84.18782 | 38929 ft | 527 kts | 120° |
| 2026-05-07 23:43 | 42.31686 | -84.14349 | 38298 ft | 531 kts | 121° |
| 2026-05-07 23:43 | 42.30016 | -84.09939 | 37708 ft | 530 kts | 120° |
| 2026-05-07 23:43 | 42.28330 | -84.05486 | 37121 ft | 529 kts | 120° |
| 2026-05-07 23:44 | 42.26645 | -84.01047 | 36539 ft | 532 kts | 121° |
| 2026-05-07 23:44 | 42.24945 | -83.96583 | 35951 ft | 535 kts | 121° |
| 2026-05-07 23:44 | 42.23240 | -83.92107 | 35365 ft | 536 kts | 120° |
| 2026-05-07 23:44 | 42.21546 | -83.87661 | 34776 ft | 536 kts | 120° |
| 2026-05-07 23:45 | 42.19830 | -83.83167 | 34182 ft | 536 kts | 121° |
| 2026-05-07 23:45 | 42.18699 | -83.80214 | 33767 ft | 536 kts | 121° |
| 2026-05-07 23:45 | 42.17773 | -83.77798 | 33419 ft | 535 kts | 121° |
| 2026-05-07 23:46 | 42.16057 | -83.73325 | 32828 ft | 539 kts | 121° |
| 2026-05-07 23:46 | 42.14331 | -83.68829 | 32237 ft | 539 kts | 121° |
| 2026-05-07 23:46 | 42.12608 | -83.64335 | 31647 ft | 539 kts | 120° |
| 2026-05-07 23:46 | 42.10892 | -83.59853 | 31059 ft | 538 kts | 121° |
| 2026-05-07 23:47 | 42.09167 | -83.55367 | 30471 ft | 540 kts | 121° |
| 2026-05-07 23:47 | 42.07453 | -83.50926 | 29852 ft | 543 kts | 121° |
| 2026-05-07 23:47 | 42.05727 | -83.46443 | 29219 ft | 527 kts | 120° |
| 2026-05-07 23:47 | 42.04082 | -83.42164 | 28655 ft | 503 kts | 121° |
| 2026-05-07 23:48 | 42.02496 | -83.38049 | 28111 ft | 492 kts | 119° |
| 2026-05-07 23:48 | 42.01225 | -83.33756 | 27569 ft | 493 kts | 108° |
| 2026-05-07 23:48 | 42.00468 | -83.29286 | 27032 ft | 488 kts | 98° |
| 2026-05-07 23:48 | 42.00115 | -83.24785 | 26503 ft | 481 kts | 94° |
| 2026-05-07 23:49 | 41.99788 | -83.20338 | 25977 ft | 476 kts | 95° |
| 2026-05-07 23:49 | 41.99444 | -83.15943 | 25452 ft | 470 kts | 95° |
| 2026-05-07 23:49 | 41.99107 | -83.11588 | 24942 ft | 465 kts | 94° |
| 2026-05-07 23:49 | 41.98784 | -83.07286 | 24434 ft | 460 kts | 94° |
| 2026-05-07 23:50 | 41.98456 | -83.03035 | 23933 ft | 455 kts | 94° |
| 2026-05-07 23:50 | 41.98124 | -82.98884 | 23424 ft | 449 kts | 94° |
| 2026-05-07 23:50 | 41.97796 | -82.94740 | 22895 ft | 442 kts | 94° |
| 2026-05-07 23:50 | 41.97473 | -82.90590 | 22404 ft | 441 kts | 94° |
| 2026-05-07 23:51 | 41.97151 | -82.86545 | 21928 ft | 439 kts | 94° |
| 2026-05-07 23:51 | 41.96823 | -82.82515 | 21443 ft | 434 kts | 94° |
| 2026-05-07 23:51 | 41.96486 | -82.78492 | 20975 ft | 430 kts | 96° |
| 2026-05-07 23:51 | 41.95802 | -82.74597 | 20499 ft | 427 kts | 105° |
| 2026-05-07 23:52 | 41.95010 | -82.70766 | 20041 ft | 425 kts | 104° |
| 2026-05-07 23:52 | 41.94274 | -82.66928 | 19580 ft | 423 kts | 103° |
| 2026-05-07 23:52 | 41.93546 | -82.63127 | 19115 ft | 418 kts | 104° |
| 2026-05-07 23:52 | 41.92789 | -82.59373 | 18655 ft | 415 kts | 105° |
| 2026-05-07 23:53 | 41.92030 | -82.55643 | 18195 ft | 413 kts | 104° |
| 2026-05-07 23:53 | 41.91301 | -82.51925 | 17707 ft | 409 kts | 104° |
| 2026-05-07 23:53 | 41.90586 | -82.48244 | 17252 ft | 405 kts | 104° |
| 2026-05-07 23:53 | 41.89862 | -82.44599 | 16806 ft | 402 kts | 104° |
| 2026-05-07 23:54 | 41.89135 | -82.40980 | 16375 ft | 400 kts | 104° |
| 2026-05-07 23:54 | 41.88432 | -82.37424 | 15942 ft | 399 kts | 104° |
| 2026-05-07 23:54 | 41.87731 | -82.33830 | 15505 ft | 397 kts | 104° |
| 2026-05-07 23:54 | 41.87026 | -82.30258 | 15091 ft | 395 kts | 104° |
| 2026-05-07 23:55 | 41.86317 | -82.26700 | 14657 ft | 393 kts | 105° |
| 2026-05-07 23:55 | 41.85614 | -82.23165 | 14230 ft | 391 kts | 104° |
| 2026-05-07 23:55 | 41.85075 | -82.19629 | 13795 ft | 387 kts | 95° |
| 2026-05-07 23:55 | 41.84804 | -82.16036 | 13346 ft | 384 kts | 95° |
| 2026-05-07 23:56 | 41.84489 | -82.12495 | 12918 ft | 381 kts | 96° |
| 2026-05-07 23:56 | 41.84148 | -82.08998 | 12504 ft | 377 kts | 96° |
| 2026-05-07 23:56 | 41.83835 | -82.05517 | 12087 ft | 374 kts | 95° |
| 2026-05-07 23:56 | 41.83542 | -82.02069 | 11682 ft | 370 kts | 95° |
| 2026-05-07 23:57 | 41.83241 | -81.98719 | 11279 ft | 350 kts | 95° |
| 2026-05-07 23:57 | 41.82950 | -81.95580 | 10908 ft | 330 kts | 95° |
| 2026-05-07 23:57 | 41.82678 | -81.92572 | 10548 ft | 323 kts | 95° |
| 2026-05-07 23:57 | 41.82412 | -81.89587 | 10192 ft | 322 kts | 95° |
| 2026-05-07 23:58 | 41.82142 | -81.86609 | 9836 ft | 321 kts | 95° |
| 2026-05-07 23:58 | 41.81870 | -81.83650 | 9466 ft | 318 kts | 95° |
| 2026-05-07 23:58 | 41.81614 | -81.80720 | 9110 ft | 314 kts | 95° |
| 2026-05-07 23:58 | 41.81369 | -81.77820 | 8754 ft | 312 kts | 95° |
| 2026-05-07 23:59 | 41.81120 | -81.74930 | 8419 ft | 311 kts | 95° |
| 2026-05-07 23:59 | 41.80867 | -81.72059 | 8077 ft | 309 kts | 95° |
| 2026-05-07 23:59 | 41.80615 | -81.69217 | 7737 ft | 307 kts | 96° |
| 2026-05-07 23:59 | 41.80268 | -81.66437 | 7378 ft | 303 kts | 101° |
| 2026-05-08 00:00 | 41.79847 | -81.63678 | 7048 ft | 300 kts | 101° |
| 2026-05-08 00:00 | 41.79418 | -81.60947 | 6719 ft | 299 kts | 101° |
| 2026-05-08 00:00 | 41.78991 | -81.58235 | 6401 ft | 297 kts | 102° |
| 2026-05-08 00:00 | 41.78565 | -81.55526 | 6053 ft | 296 kts | 101° |
| 2026-05-08 00:01 | 41.78141 | -81.52835 | 5663 ft | 295 kts | 101° |
| 2026-05-08 00:01 | 41.77717 | -81.50169 | 5271 ft | 290 kts | 101° |
| 2026-05-08 00:01 | 41.77299 | -81.47537 | 4886 ft | 287 kts | 101° |
| 2026-05-08 00:01 | 41.76886 | -81.44932 | 4481 ft | 285 kts | 101° |
| 2026-05-08 00:02 | 41.76477 | -81.42344 | 4094 ft | 284 kts | 101° |
| 2026-05-08 00:02 | 41.76071 | -81.39766 | 3700 ft | 282 kts | 101° |
| 2026-05-08 00:02 | 41.75667 | -81.37201 | 3319 ft | 281 kts | 101° |
| 2026-05-08 00:02 | 41.75262 | -81.34647 | 3010 ft | 278 kts | 101° |
| 2026-05-08 00:03 | 41.74877 | -81.32205 | 2985 ft | 258 kts | 101° |
| 2026-05-08 00:03 | 41.74528 | -81.29962 | 2976 ft | 235 kts | 101° |
| 2026-05-08 00:03 | 41.74203 | -81.27875 | 2985 ft | 225 kts | 101° |
| 2026-05-08 00:03 | 41.73886 | -81.25842 | 2991 ft | 226 kts | 101° |
| 2026-05-08 00:04 | 41.73559 | -81.23781 | 2981 ft | 228 kts | 105° |
| 2026-05-08 00:04 | 41.72751 | -81.22011 | 2984 ft | 223 kts | 142° |
| 2026-05-08 00:04 | 41.71382 | -81.21212 | 2984 ft | 212 kts | 180° |
| 2026-05-08 00:04 | 41.70007 | -81.21639 | 2984 ft | 201 kts | 218° |
| 2026-05-08 00:05 | 41.69179 | -81.23049 | 2986 ft | 192 kts | 255° |
| 2026-05-08 00:05 | 41.69227 | -81.24777 | 2986 ft | 189 kts | 292° |
| 2026-05-08 00:05 | 41.70088 | -81.26078 | 3000 ft | 190 kts | 319° |
| 2026-05-08 00:05 | 41.70797 | -81.27514 | 2989 ft | 188 kts | 282° |
| 2026-05-08 00:06 | 41.70402 | -81.29103 | 2929 ft | 201 kts | 219° |
| 2026-05-08 00:06 | 41.69107 | -81.29921 | 2890 ft | 204 kts | 210° |
| 2026-05-08 00:06 | 41.67857 | -81.30768 | 2927 ft | 201 kts | 213° |
| 2026-05-08 00:06 | 41.66763 | -81.31914 | 2816 ft | 201 kts | 237° |
| 2026-05-08 00:07 | 41.66036 | -81.33454 | 2838 ft | 191 kts | 241° |
| 2026-05-08 00:07 | 41.65275 | -81.34866 | 2969 ft | 195 kts | 237° |
| 2026-05-08 00:07 | 41.64432 | -81.36256 | 3011 ft | 184 kts | 235° |
| 2026-05-08 00:07 | 41.63649 | -81.37473 | 2992 ft | 164 kts | 235° |
| 2026-05-08 00:08 | 41.62925 | -81.38617 | 2795 ft | 157 kts | 236° |
| 2026-05-08 00:08 | 41.62231 | -81.39704 | 2586 ft | 152 kts | 235° |
| 2026-05-08 00:08 | 41.61538 | -81.40792 | 2383 ft | 155 kts | 236° |
| 2026-05-08 00:08 | 41.60844 | -81.41872 | 2168 ft | 151 kts | 235° |
| 2026-05-08 00:09 | 41.60390 | -81.42579 | 2024 ft | 150 kts | 235° |
| 2026-05-08 00:09 | 41.59723 | -81.43618 | 1848 ft | 142 kts | 235° |
| 2026-05-08 00:09 | 41.59097 | -81.44596 | 1607 ft | 135 kts | 234° |
| 2026-05-08 00:09 | 41.58504 | -81.45518 | 1406 ft | 124 kts | 235° |
| 2026-05-08 00:10 | 41.57954 | -81.46375 | 1233 ft | 122 kts | 235° |
| 2026-05-08 00:10 | 41.57411 | -81.47247 | 1074 ft | 124 kts | 232° |
| 2026-05-08 00:10 | 41.56844 | -81.48119 | 884 ft | 118 kts | 231° |
| 2026-05-08 00:10 | 41.56508 | -81.48644 | 875 ft | 0 kts | 209° |